Time,TemperatureF,DewpointF,PressureIn,WindDirection,WindDirectionDegrees,WindSpeedMPH,WindSpeedGustMPH,Humidity,HourlyPrecipIn,Conditions,Clouds,dailyrainin,SolarRadiationWatts/m^2,SoftwareType,DateUTC
2013-01-12 00:02:00,2.0,-7.0,-100.00,NW,326,22.0,33.0,64,0.00,,,0.00,0.000000,,2013-01-12 07:02:00,
2013-01-12 00:12:00,2.0,-7.0,-100.00,NW,326,22.0,33.0,64,0.00,,,0.00,0.000000,,2013-01-12 07:12:00,
2013-01-12 00:22:00,2.0,-7.0,-100.00,NW,326,22.0,33.0,64,0.00,,,0.00,0.000000,,2013-01-12 07:22:00,
2013-01-12 00:32:00,2.0,-7.0,-100.00,NW,326,22.0,33.0,64,0.00,,,0.00,0.000000,,2013-01-12 07:32:00,
2013-01-12 00:40:00,2.0,-7.0,-100.00,NW,325,24.0,35.0,64,0.00,,,0.00,0.000000,,2013-01-12 07:40:00,
2013-01-12 01:02:00,2.0,-7.0,-100.00,NW,325,24.0,35.0,64,0.00,,,0.00,0.000000,,2013-01-12 08:02:00,
2013-01-12 01:12:00,2.0,-7.0,-100.00,NW,325,24.0,35.0,64,0.00,,,0.00,0.000000,,2013-01-12 08:12:00,
2013-01-12 01:22:00,2.0,-7.0,-100.00,NW,325,24.0,35.0,64,0.00,,,0.00,0.000000,,2013-01-12 08:22:00,
2013-01-12 01:32:00,2.0,-7.0,-100.00,NW,325,24.0,35.0,64,0.00,,,0.00,0.000000,,2013-01-12 08:32:00,
2013-01-12 01:40:00,2.0,-7.0,-100.00,NW,322,22.0,33.0,64,0.00,,,0.00,0.000000,,2013-01-12 08:40:00,
2013-01-12 02:02:00,2.0,-7.0,-100.00,NW,322,22.0,33.0,64,0.00,,,0.00,0.000000,,2013-01-12 09:02:00,
2013-01-12 02:12:00,2.0,-7.0,-100.00,NW,322,22.0,33.0,64,0.00,,,0.00,0.000000,,2013-01-12 09:12:00,
2013-01-12 02:22:00,2.0,-7.0,-100.00,NW,322,22.0,33.0,64,0.00,,,0.00,0.000000,,2013-01-12 09:22:00,
2013-01-12 02:32:00,2.0,-7.0,-100.00,NW,322,22.0,33.0,64,0.00,,,0.00,0.000000,,2013-01-12 09:32:00,
2013-01-12 02:40:00,1.0,-9.0,-100.00,NW,316,21.0,34.0,62,0.00,,,0.00,0.000000,,2013-01-12 09:40:00,
2013-01-12 03:02:00,1.0,-9.0,-100.00,NW,316,21.0,34.0,62,0.00,,,0.00,0.000000,,2013-01-12 10:02:00,
2013-01-12 03:12:00,1.0,-9.0,-100.00,NW,316,21.0,34.0,62,0.00,,,0.00,0.000000,,2013-01-12 10:12:00,
2013-01-12 03:22:00,1.0,-9.0,-100.00,NW,316,21.0,34.0,62,0.00,,,0.00,0.000000,,2013-01-12 10:22:00,
2013-01-12 03:32:00,1.0,-9.0,-100.00,NW,316,21.0,34.0,62,0.00,,,0.00,0.000000,,2013-01-12 10:32:00,
2013-01-12 03:40:00,1.0,-9.0,-100.00,WNW,299,17.0,31.0,62,0.00,,,0.00,0.000000,,2013-01-12 10:40:00,
2013-01-12 04:02:00,1.0,-9.0,-100.00,WNW,299,17.0,31.0,62,0.00,,,0.00,0.000000,,2013-01-12 11:02:00,
2013-01-12 04:12:00,1.0,-9.0,-100.00,WNW,299,17.0,31.0,62,0.00,,,0.00,0.000000,,2013-01-12 11:12:00,
2013-01-12 04:22:00,1.0,-9.0,-100.00,WNW,299,17.0,31.0,62,0.00,,,0.00,0.000000,,2013-01-12 11:22:00,
2013-01-12 04:32:00,1.0,-9.0,-100.00,WNW,299,17.0,31.0,62,0.00,,,0.00,0.000000,,2013-01-12 11:32:00,
2013-01-12 04:40:00,1.0,-9.0,-100.00,NW,305,18.0,27.0,63,0.00,,,0.00,0.000000,,2013-01-12 11:40:00,
2013-01-12 05:03:00,1.0,-9.0,-100.00,NW,305,18.0,27.0,63,0.00,,,0.00,0.000000,,2013-01-12 12:03:00,
2013-01-12 05:12:00,1.0,-9.0,-100.00,NW,305,18.0,27.0,63,0.00,,,0.00,0.000000,,2013-01-12 12:12:00,
2013-01-12 05:22:00,1.0,-9.0,-100.00,NW,305,18.0,27.0,63,0.00,,,0.00,0.000000,,2013-01-12 12:22:00,
2013-01-12 05:32:00,1.0,-9.0,-100.00,NW,305,18.0,27.0,63,0.00,,,0.00,0.000000,,2013-01-12 12:32:00,
2013-01-12 05:40:00,1.0,-9.0,-100.00,NW,308,18.0,25.0,62,0.00,,,0.00,0.000000,,2013-01-12 12:40:00,
2013-01-12 06:02:00,1.0,-9.0,-100.00,NW,308,18.0,25.0,62,0.00,,,0.00,0.000000,,2013-01-12 13:02:00,
2013-01-12 06:12:00,1.0,-9.0,-100.00,NW,308,18.0,25.0,62,0.00,,,0.00,0.000000,,2013-01-12 13:12:00,
2013-01-12 06:22:00,1.0,-9.0,-100.00,NW,308,18.0,25.0,62,0.00,,,0.00,0.000000,,2013-01-12 13:22:00,
2013-01-12 06:33:00,1.0,-9.0,-100.00,NW,308,18.0,25.0,62,0.00,,,0.00,0.000000,,2013-01-12 13:33:00,
2013-01-12 06:40:00,0.0,-10.0,-100.00,NW,308,12.0,23.0,62,0.00,,,0.00,0.000000,,2013-01-12 13:40:00,
2013-01-12 07:02:00,0.0,-10.0,-100.00,NW,308,12.0,23.0,62,0.00,,,0.00,0.000000,,2013-01-12 14:02:00,
2013-01-12 07:12:00,0.0,-10.0,-100.00,NW,308,12.0,23.0,62,0.00,,,0.00,0.000000,,2013-01-12 14:12:00,
2013-01-12 07:22:00,0.0,-10.0,-100.00,NW,308,12.0,23.0,62,0.00,,,0.00,0.000000,,2013-01-12 14:22:00,
2013-01-12 07:33:00,0.0,-10.0,-100.00,NW,308,12.0,23.0,62,0.00,,,0.00,0.000000,,2013-01-12 14:33:00,
2013-01-12 07:40:00,0.0,-10.0,-100.00,NW,305,10.0,20.0,61,0.00,,,0.00,0.000000,,2013-01-12 14:40:00,
2013-01-12 08:03:00,0.0,-10.0,-100.00,NW,305,10.0,20.0,61,0.00,,,0.00,0.000000,,2013-01-12 15:03:00,
2013-01-12 08:12:00,0.0,-10.0,-100.00,NW,305,10.0,20.0,61,0.00,,,0.00,0.000000,,2013-01-12 15:12:00,
2013-01-12 08:22:00,0.0,-10.0,-100.00,NW,305,10.0,20.0,61,0.00,,,0.00,0.000000,,2013-01-12 15:22:00,
2013-01-12 08:33:00,0.0,-10.0,-100.00,NW,305,10.0,20.0,61,0.00,,,0.00,0.000000,,2013-01-12 15:33:00,
2013-01-12 08:40:00,-1.0,-12.0,-100.00,WNW,302,10.0,19.0,59,0.00,,,0.00,23.000000,,2013-01-12 15:40:00,
2013-01-12 09:03:00,-1.0,-12.0,-100.00,WNW,302,10.0,19.0,59,0.00,,,0.00,23.000000,,2013-01-12 16:03:00,
2013-01-12 09:12:00,-1.0,-12.0,-100.00,WNW,302,10.0,19.0,59,0.00,,,0.00,23.000000,,2013-01-12 16:12:00,
2013-01-12 09:23:00,-1.0,-12.0,-100.00,WNW,302,10.0,19.0,59,0.00,,,0.00,23.000000,,2013-01-12 16:23:00,
2013-01-12 09:33:00,-1.0,-12.0,-100.00,WNW,302,10.0,19.0,59,0.00,,,0.00,23.000000,,2013-01-12 16:33:00,
2013-01-12 09:40:00,0.0,-12.0,-100.00,WNW,291,7.0,16.0,57,0.00,,,0.00,104.000000,,2013-01-12 16:40:00,
2013-01-12 10:02:00,0.0,-12.0,-100.00,WNW,291,7.0,16.0,57,0.00,,,0.00,104.000000,,2013-01-12 17:02:00,
2013-01-12 10:12:00,0.0,-12.0,-100.00,WNW,291,7.0,16.0,57,0.00,,,0.00,104.000000,,2013-01-12 17:12:00,
2013-01-12 10:22:00,0.0,-12.0,-100.00,WNW,291,7.0,16.0,57,0.00,,,0.00,104.000000,,2013-01-12 17:22:00,
2013-01-12 10:33:00,0.0,-12.0,-100.00,WNW,291,7.0,16.0,57,0.00,,,0.00,104.000000,,2013-01-12 17:33:00,
2013-01-12 10:40:00,2.0,-10.0,-100.00,WNW,288,9.0,12.0,57,0.00,,,0.00,167.000000,,2013-01-12 17:40:00,
2013-01-12 11:03:00,2.0,-10.0,-100.00,WNW,288,9.0,12.0,57,0.00,,,0.00,167.000000,,2013-01-12 18:03:00,
2013-01-12 11:12:00,2.0,-10.0,-100.00,WNW,288,9.0,12.0,57,0.00,,,0.00,167.000000,,2013-01-12 18:12:00,
2013-01-12 11:23:00,2.0,-10.0,-100.00,WNW,288,9.0,12.0,57,0.00,,,0.00,167.000000,,2013-01-12 18:23:00,
2013-01-12 11:33:00,2.0,-10.0,-100.00,WNW,288,9.0,12.0,57,0.00,,,0.00,167.000000,,2013-01-12 18:33:00,
2013-01-12 11:40:00,3.0,-9.0,-100.00,WNW,294,13.0,20.0,56,0.00,,,0.00,308.000000,,2013-01-12 18:40:00,
2013-01-12 12:03:00,3.0,-9.0,-100.00,WNW,294,13.0,20.0,56,0.00,,,0.00,308.000000,,2013-01-12 19:03:00,
2013-01-12 12:12:00,3.0,-9.0,-100.00,WNW,294,13.0,20.0,56,0.00,,,0.00,308.000000,,2013-01-12 19:12:00,
2013-01-12 12:23:00,3.0,-9.0,-100.00,WNW,294,13.0,20.0,56,0.00,,,0.00,308.000000,,2013-01-12 19:23:00,
2013-01-12 12:33:00,3.0,-9.0,-100.00,WNW,294,13.0,20.0,56,0.00,,,0.00,308.000000,,2013-01-12 19:33:00,
2013-01-12 12:40:00,5.0,-8.0,-100.00,WNW,302,15.0,22.0,54,0.00,,,0.00,404.000000,,2013-01-12 19:40:00,
2013-01-12 13:03:00,5.0,-8.0,-100.00,WNW,302,15.0,22.0,54,0.00,,,0.00,404.000000,,2013-01-12 20:03:00,
2013-01-12 13:12:00,5.0,-8.0,-100.00,WNW,302,15.0,22.0,54,0.00,,,0.00,404.000000,,2013-01-12 20:12:00,
2013-01-12 13:22:00,5.0,-8.0,-100.00,WNW,302,15.0,22.0,54,0.00,,,0.00,404.000000,,2013-01-12 20:22:00,
2013-01-12 13:33:00,5.0,-8.0,-100.00,WNW,302,15.0,22.0,54,0.00,,,0.00,404.000000,,2013-01-12 20:33:00,
2013-01-12 13:40:00,6.0,-8.0,-100.00,WNW,299,13.0,23.0,52,0.00,,,0.00,419.000000,,2013-01-12 20:40:00,
2013-01-12 14:03:00,6.0,-8.0,-100.00,WNW,299,13.0,23.0,52,0.00,,,0.00,419.000000,,2013-01-12 21:03:00,
2013-01-12 14:12:00,6.0,-8.0,-100.00,WNW,299,13.0,23.0,52,0.00,,,0.00,419.000000,,2013-01-12 21:12:00,
2013-01-12 14:22:00,6.0,-8.0,-100.00,WNW,299,13.0,23.0,52,0.00,,,0.00,419.000000,,2013-01-12 21:22:00,
2013-01-12 14:33:00,6.0,-8.0,-100.00,WNW,299,13.0,23.0,52,0.00,,,0.00,419.000000,,2013-01-12 21:33:00,
2013-01-12 14:40:00,6.0,-9.0,-100.00,WNW,291,11.0,19.0,50,0.00,,,0.00,328.000000,,2013-01-12 21:40:00,
2013-01-12 15:03:00,6.0,-9.0,-100.00,WNW,291,11.0,19.0,50,0.00,,,0.00,328.000000,,2013-01-12 22:03:00,
2013-01-12 15:12:00,6.0,-9.0,-100.00,WNW,291,11.0,19.0,50,0.00,,,0.00,328.000000,,2013-01-12 22:12:00,
2013-01-12 15:22:00,6.0,-9.0,-100.00,WNW,291,11.0,19.0,50,0.00,,,0.00,328.000000,,2013-01-12 22:22:00,
2013-01-12 15:33:00,6.0,-9.0,-100.00,WNW,291,11.0,19.0,50,0.00,,,0.00,328.000000,,2013-01-12 22:33:00,
2013-01-12 15:40:00,5.0,-9.0,-100.00,WNW,297,13.0,19.0,52,0.00,,,0.00,109.000000,,2013-01-12 22:40:00,
2013-01-12 16:03:00,5.0,-9.0,-100.00,WNW,297,13.0,19.0,52,0.00,,,0.00,109.000000,,2013-01-12 23:03:00,
2013-01-12 16:12:00,5.0,-9.0,-100.00,WNW,297,13.0,19.0,52,0.00,,,0.00,109.000000,,2013-01-12 23:12:00,
2013-01-12 16:22:00,5.0,-9.0,-100.00,WNW,297,13.0,19.0,52,0.00,,,0.00,109.000000,,2013-01-12 23:22:00,
2013-01-12 16:33:00,5.0,-9.0,-100.00,WNW,297,13.0,19.0,52,0.00,,,0.00,109.000000,,2013-01-12 23:33:00,
2013-01-12 16:40:00,4.0,-9.0,-100.00,WNW,293,9.0,17.0,53,0.00,,,0.00,34.000000,,2013-01-12 23:40:00,
2013-01-12 17:03:00,4.0,-9.0,-100.00,WNW,293,9.0,17.0,53,0.00,,,0.00,34.000000,,2013-01-13 00:03:00,
2013-01-12 17:12:00,4.0,-9.0,-100.00,WNW,293,9.0,17.0,53,0.00,,,0.00,34.000000,,2013-01-13 00:12:00,
2013-01-12 17:23:00,4.0,-9.0,-100.00,WNW,293,9.0,17.0,53,0.00,,,0.00,34.000000,,2013-01-13 00:23:00,
2013-01-12 17:33:00,4.0,-9.0,-100.00,WNW,293,9.0,17.0,53,0.00,,,0.00,34.000000,,2013-01-13 00:33:00,
2013-01-12 17:40:00,4.0,-9.0,-100.00,West,269,5.0,13.0,53,0.00,,,0.00,0.000000,,2013-01-13 00:40:00,
2013-01-12 18:12:00,4.0,-9.0,-100.00,West,269,5.0,13.0,53,0.00,,,0.00,0.000000,,2013-01-13 01:12:00,
2013-01-12 18:22:00,4.0,-9.0,-100.00,West,269,5.0,13.0,53,0.00,,,0.00,0.000000,,2013-01-13 01:22:00,
2013-01-12 18:33:00,4.0,-9.0,-100.00,West,269,5.0,13.0,53,0.00,,,0.00,0.000000,,2013-01-13 01:33:00,
2013-01-12 18:40:00,4.0,-10.0,-100.00,West,271,2.0,9.0,52,0.00,,,0.00,0.000000,,2013-01-13 01:40:00,
2013-01-12 19:02:00,4.0,-10.0,-100.00,West,271,2.0,9.0,52,0.00,,,0.00,0.000000,,2013-01-13 02:02:00,
2013-01-12 19:12:00,4.0,-10.0,-100.00,West,271,2.0,9.0,52,0.00,,,0.00,0.000000,,2013-01-13 02:12:00,
2013-01-12 19:22:00,4.0,-10.0,-100.00,West,271,2.0,9.0,52,0.00,,,0.00,0.000000,,2013-01-13 02:22:00,
2013-01-12 19:32:00,4.0,-10.0,-100.00,West,271,2.0,9.0,52,0.00,,,0.00,0.000000,,2013-01-13 02:32:00,
2013-01-12 19:40:00,2.0,-10.0,-100.00,WNW,301,0.0,6.0,56,0.00,,,0.00,0.000000,,2013-01-13 02:40:00,
2013-01-12 20:02:00,2.0,-10.0,-100.00,WNW,301,0.0,6.0,56,0.00,,,0.00,0.000000,,2013-01-13 03:02:00,
2013-01-12 20:12:00,2.0,-10.0,-100.00,WNW,301,0.0,6.0,56,0.00,,,0.00,0.000000,,2013-01-13 03:12:00,
2013-01-12 20:22:00,2.0,-10.0,-100.00,WNW,301,0.0,6.0,56,0.00,,,0.00,0.000000,,2013-01-13 03:22:00,
2013-01-12 20:33:00,2.0,-10.0,-100.00,WNW,301,0.0,6.0,56,0.00,,,0.00,0.000000,,2013-01-13 03:33:00,
2013-01-12 20:40:00,4.0,-9.0,-100.00,WNW,287,7.0,11.0,54,0.00,,,0.00,0.000000,,2013-01-13 03:40:00,
2013-01-12 21:02:00,4.0,-9.0,-100.00,WNW,287,7.0,11.0,54,0.00,,,0.00,0.000000,,2013-01-13 04:02:00,
2013-01-12 21:12:00,4.0,-9.0,-100.00,WNW,287,7.0,11.0,54,0.00,,,0.00,0.000000,,2013-01-13 04:12:00,
2013-01-12 21:22:00,4.0,-9.0,-100.00,WNW,287,7.0,11.0,54,0.00,,,0.00,0.000000,,2013-01-13 04:22:00,
2013-01-12 21:33:00,4.0,-9.0,-100.00,WNW,287,7.0,11.0,54,0.00,,,0.00,0.000000,,2013-01-13 04:33:00,
2013-01-12 21:40:00,3.0,-10.0,-100.00,North,356,0.0,7.0,53,0.00,,,0.00,0.000000,,2013-01-13 04:40:00,
2013-01-12 22:03:00,3.0,-10.0,-100.00,North,356,0.0,7.0,53,0.00,,,0.00,0.000000,,2013-01-13 05:03:00,
2013-01-12 22:12:00,3.0,-10.0,-100.00,North,356,0.0,7.0,53,0.00,,,0.00,0.000000,,2013-01-13 05:12:00,
2013-01-12 22:22:00,3.0,-10.0,-100.00,North,356,0.0,7.0,53,0.00,,,0.00,0.000000,,2013-01-13 05:22:00,
2013-01-12 22:32:00,3.0,-10.0,-100.00,North,356,0.0,7.0,53,0.00,,,0.00,0.000000,,2013-01-13 05:32:00,
2013-01-12 22:40:00,2.0,-12.0,-100.00,WSW,239,2.0,8.0,52,0.00,,,0.00,0.000000,,2013-01-13 05:40:00,
2013-01-12 23:03:00,2.0,-12.0,-100.00,WSW,239,2.0,8.0,52,0.00,,,0.00,0.000000,,2013-01-13 06:03:00,
2013-01-12 23:12:00,2.0,-12.0,-100.00,WSW,239,2.0,8.0,52,0.00,,,0.00,0.000000,,2013-01-13 06:12:00,
2013-01-12 23:22:00,2.0,-12.0,-100.00,WSW,239,2.0,8.0,52,0.00,,,0.00,0.000000,,2013-01-13 06:22:00,
2013-01-12 23:32:00,2.0,-12.0,-100.00,WSW,239,2.0,8.0,52,0.00,,,0.00,0.000000,,2013-01-13 06:32:00,
2013-01-12 23:40:00,3.0,-11.0,-100.00,West,271,10.0,13.0,52,0.00,,,0.00,0.000000,,2013-01-13 06:40:00,